createdAt,value
2023-03-17T00:01:20.929Z,48.66
2023-03-17T00:06:24.446Z,48.46
2023-03-17T00:11:21.504Z,48.59
2023-03-17T00:16:19.969Z,49.11
2023-03-17T00:21:17.459Z,48.77
2023-03-17T00:26:14.251Z,49.02
2023-03-17T00:31:16.620Z,49.02
2023-03-17T00:36:24.219Z,49.32
2023-03-17T00:41:20.703Z,49.20
2023-03-17T00:46:24.528Z,49.41
2023-03-17T00:51:21.801Z,49.30
2023-03-17T00:56:20.945Z,49.19
2023-03-17T01:01:18.422Z,49.21
2023-03-17T01:06:15.086Z,49.40
2023-03-17T01:11:17.679Z,49.79
2023-03-17T01:16:15.341Z,49.46
2023-03-17T01:21:12.607Z,49.90
2023-03-17T01:26:09.350Z,50.00
2023-03-17T01:31:06.010Z,49.78
2023-03-17T01:36:02.543Z,49.81
2023-03-17T01:41:03.501Z,50.01
2023-03-17T01:46:29.232Z,50.14
2023-03-17T01:51:47.242Z,50.52
2023-03-17T01:56:45.794Z,50.69
2023-03-17T02:01:45.178Z,50.54
2023-03-17T02:06:56.718Z,51.07
2023-03-17T02:11:55.864Z,51.05
2023-03-17T02:16:52.614Z,50.98
2023-03-17T02:21:58.880Z,50.98
2023-03-17T02:26:56.908Z,51.13
2023-03-17T02:31:53.782Z,51.30
2023-03-17T02:36:50.318Z,51.65
2023-03-17T02:41:47.133Z,51.78
2023-03-17T02:46:43.856Z,51.58
2023-03-17T02:51:42.286Z,51.65
2023-03-17T02:56:38.699Z,52.02
2023-03-17T03:01:36.260Z,51.84
2023-03-17T03:06:33.486Z,52.27
2023-03-17T03:11:30.258Z,52.35
2023-03-17T03:16:26.747Z,52.38
2023-03-17T03:21:23.395Z,52.56
2023-03-17T03:26:25.636Z,52.52
2023-03-17T03:31:22.838Z,52.32
2023-03-17T03:36:20.289Z,52.57
2023-03-17T03:41:16.727Z,52.69
2023-03-17T03:46:13.215Z,52.48
2023-03-17T03:51:09.741Z,52.83
2023-03-17T03:56:06.859Z,52.73
2023-03-17T04:01:06.040Z,53.08
2023-03-17T04:06:03.472Z,52.75
2023-03-17T04:11:00.280Z,53.16
2023-03-17T04:15:56.945Z,53.10
2023-03-17T04:20:59.520Z,52.99
2023-03-17T04:25:55.998Z,53.55
2023-03-17T04:30:52.481Z,53.17
2023-03-17T04:35:51.155Z,53.43
2023-03-17T04:40:47.663Z,53.74
2023-03-17T04:45:44.105Z,53.61
2023-03-17T04:50:40.558Z,53.55
2023-03-17T04:55:37.454Z,53.87
2023-03-17T05:00:38.586Z,53.90
2023-03-17T05:05:36.061Z,53.75
2023-03-17T05:10:32.796Z,54.04
2023-03-17T05:15:31.360Z,54.00
2023-03-17T05:20:27.813Z,54.18
2023-03-17T05:25:25.243Z,54.04
2023-03-17T05:30:21.672Z,54.42
2023-03-17T05:35:18.728Z,54.40
2023-03-17T05:40:15.319Z,54.44
2023-03-17T05:45:12.396Z,54.70
2023-03-17T05:50:09.915Z,54.85
2023-03-17T05:55:07.839Z,54.81
2023-03-17T06:00:05.340Z,54.73
2023-03-17T06:05:02.380Z,55.32
2023-03-17T06:09:59.054Z,55.24
2023-03-17T06:14:55.678Z,55.24
2023-03-17T06:19:52.123Z,55.01
2023-03-17T06:24:48.913Z,55.08
2023-03-17T06:29:45.372Z,55.19
2023-03-17T06:34:42.615Z,55.16
2023-03-17T14:44:20.102Z,45.19
2023-03-17T14:49:18.958Z,44.75
2023-03-17T15:19:13.551Z,44.36
2023-03-17T15:24:33.465Z,44.63
2023-03-17T16:58:00.735Z,45.15
2023-03-17T17:02:58.105Z,45.30
2023-03-17T22:07:49.803Z,53.06
2023-03-17T22:18:28.722Z,53.42
2023-03-17T22:23:26.564Z,53.25
2023-03-17T22:28:23.654Z,53.27
2023-03-17T22:33:20.324Z,53.29
2023-03-17T22:38:17.865Z,53.21
2023-03-17T22:43:14.415Z,53.80
2023-03-17T22:48:11.027Z,53.76
2023-03-17T22:53:07.736Z,53.75
2023-03-17T22:58:04.182Z,53.38
2023-03-17T23:03:00.744Z,53.83
2023-03-17T23:07:57.582Z,54.21
2023-03-17T23:12:54.212Z,54.21
2023-03-17T23:17:51.902Z,54.63
2023-03-17T23:22:48.588Z,54.44
2023-03-17T23:27:45.274Z,54.58
2023-03-17T23:32:42.813Z,54.56
2023-03-17T23:37:39.706Z,54.57
2023-03-17T23:42:36.413Z,54.46
2023-03-17T23:47:32.996Z,54.66
2023-03-17T23:52:30.608Z,54.80
2023-03-17T23:57:27.136Z,55.50
